Airfield :
LOGIN :

Register | Disclaimer

   EN    FR    IT 

 










Legend :    VFR   Marginal VFR   IFR   Intensive IFR   Very Intensive IFR
Visi :
Ceiling :
>= 8 km
>= 3000ft
5 to 8 km
1000 to 3000 ft
1500m to 5 km
500 to 1000 ft
800 to 1500m
200 to 500 ft
< 800m
< 200 ft
Symbols :   Thunderstorms  Fog  Heavy snow  Heavy precipitations  Wind > 20 kt
SIGMETs :     Misc.  Thunderstorms  Icing  Turbulence  Mountain Waves  Volcanic Ashes







- Airport Elevation : 670 ft
- IATA code : MSQ


UMMS - Minsk - 2

CURRENT METAR :
  • 152030Z 29004MPS 9999 OVC004 02/01 Q1025 R31/290050 NOSIG RMK QBB130

EXPIRED METARs :
  • 152000Z 29004MPS 260V320 7000 OVC004 02/01 Q1025 R31/290050 NOSIG RMK QBB130
  • 151930Z 28005MPS 250V310 7000 OVC004 02/01 Q1025 R31/290050 NOSIG RMK QBB140
  • 151900Z 29004G07MPS 5000 BR OVC004 02/01 Q1025 R31/290050 NOSIG RMK QBB130
  • 151830Z 29004G07MPS 5000 BR OVC004 02/01 Q1025 R31/290050 NOSIG RMK QBB130
  • 151800Z 28005MPS 250V320 5000 BR OVC004 02/02 Q1025 R31/290050 NOSIG RMK QBB130

TAF TAF UMMS
Valid from the 15 at 18:00 until the 16 at 18:00 UTC


151706Z 1518/1618 29006MPS 3000 BR BKN003 BKN007 TX02/1518Z TNM01/1604Z
TEMPO 1518/1609 0400 -FZDZ FZFG VV002
BECMG 1609/1610 26006G11MPS
TEMPO 1610/1618 27009G14MPS 1200 -RA BKN002
No reported NOTAMs for that airfield.



MET'MAP, your aeronautical weather chart ! - Copyright ORBIFLY December 2007 - Disclaimer

ORBIFLY MET'MAP TEAM :

Programming & Development : Alexandra Zaïnal
Concept & Development : Baudouin d'Aumeries
Co-Development & Prog : Marc-Olivier Méhu
Technical & hardware support : Manuel Goepfert

Contact : metmap@orbifly.com




SOURCES & CREDITS :

   NOAA